Time;durP1;ratioP1;P1;durP2;ratioP2;P2;SDS_P1;SDS_P2;PMS_P1;PMS_P2;Temp;Humidity;BMP_temperature;BMP_pressure;BME280_temperature;BME280_humidity;BME280_pressure;Samples;Min_cycle;Max_cycle;Signal;HPM_P1;HPM_P2
2022/04/21 00:00:21;;;;;;;7.30;5.72;;;7.90;76.00;;;;;;5098129;28;20040;-76
2022/04/21 00:02:47;;;;;;;7.10;5.63;;;7.90;76.10;;;;;;5098340;28;20400;-77
2022/04/21 00:05:13;;;;;;;8.55;6.35;;;7.90;76.30;;;;;;5098314;28;20035;-77
2022/04/21 00:07:39;;;;;;;9.93;7.18;;;7.90;76.60;;;;;;5081112;28;20040;-78
2022/04/21 00:10:07;;;;;;;7.32;6.15;;;7.90;76.60;;;;;;5081045;28;20404;-76
2022/04/21 00:12:36;;;;;;;7.95;6.30;;;7.90;76.50;;;;;;5064430;28;20051;-77
2022/04/21 00:15:04;;;;;;;9.75;7.15;;;7.90;76.60;;;;;;5097996;28;20044;-78
2022/04/21 00:17:29;;;;;;;8.40;7.13;;;7.90;76.40;;;;;;5080956;28;20167;-76
2022/04/21 00:19:55;;;;;;;10.65;7.60;;;7.90;76.70;;;;;;5097707;28;20044;-77
2022/04/21 00:25:05;;;;;;;10.18;7.47;;;7.80;76.50;;;;;;5097813;28;20131;-77
2022/04/21 00:27:37;;;;;;;8.48;6.22;;;7.70;76.80;;;;;;5064394;28;20047;-78
2022/04/21 00:30:06;;;;;;;10.70;8.38;;;7.80;76.70;;;;;;5097777;28;20445;-76
2022/04/21 00:32:33;;;;;;;9.90;8.15;;;7.80;77.00;;;;;;5097575;28;20075;-78
2022/04/21 00:34:58;;;;;;;12.68;8.43;;;7.70;76.80;;;;;;5097561;28;20057;-78
2022/04/21 00:37:24;;;;;;;9.75;8.63;;;7.70;77.50;;;;;;5079313;28;20044;-78
2022/04/21 00:39:50;;;;;;;13.45;9.43;;;7.70;77.50;;;;;;5097435;28;20043;-77
2022/04/21 00:42:16;;;;;;;11.98;8.63;;;7.70;77.50;;;;;;5080383;28;20122;-78
2022/04/21 00:44:41;;;;;;;14.07;9.52;;;7.80;77.80;;;;;;5097358;28;20058;-75
2022/04/21 00:47:08;;;;;;;13.75;10.70;;;7.70;78.10;;;;;;5097208;28;20035;-76
2022/04/21 00:49:35;;;;;;;14.32;10.50;;;7.70;77.70;;;;;;5080429;28;20047;-77
2022/04/21 00:52:02;;;;;;;15.98;10.48;;;7.70;77.90;;;;;;5097144;28;20079;-77
2022/04/21 00:54:32;;;;;;;16.50;11.80;;;7.70;77.80;;;;;;5097352;28;20483;-77
2022/04/21 00:57:00;;;;;;;14.48;10.93;;;7.70;77.90;;;;;;5097239;28;20035;-78
2022/04/21 00:59:26;;;;;;;15.80;11.00;;;7.60;78.20;;;;;;5096983;28;20097;-77
2022/04/21 01:04:39;;;;;;;16.40;12.15;;;7.70;78.20;;;;;;5096968;28;20093;-78
2022/04/21 01:07:08;;;;;;;18.20;12.68;;;7.70;78.60;;;;;;5097107;28;20511;-79
2022/04/21 01:09:38;;;;;;;15.45;11.23;;;7.80;78.70;;;;;;5097110;28;20043;-75
2022/04/21 01:12:11;;;;;;;21.17;13.45;;;7.80;78.60;;;;;;5063355;28;20082;-78
2022/04/21 01:14:38;;;;;;;18.83;12.23;;;7.80;78.60;;;;;;5079797;28;20065;-78
2022/04/21 01:17:04;;;;;;;19.23;12.95;;;7.80;78.40;;;;;;5080036;28;20095;-78
2022/04/21 01:19:30;;;;;;;18.55;12.65;;;7.80;79.10;;;;;;5080016;28;20055;-77
2022/04/21 01:21:56;;;;;;;20.20;13.65;;;7.80;79.40;;;;;;5096571;28;20044;-77
2022/04/21 01:24:22;;;;;;;17.83;12.07;;;7.80;78.80;;;;;;5096497;28;20410;-77
2022/04/21 01:26:48;;;;;;;18.05;12.60;;;7.70;79.10;;;;;;5096333;28;20047;-77
2022/04/21 01:29:14;;;;;;;18.65;12.70;;;7.70;78.70;;;;;;5096364;28;20561;-77
2022/04/21 01:31:40;;;;;;;18.00;13.68;;;7.70;78.60;;;;;;5096733;28;20047;-78
2022/04/21 01:34:05;;;;;;;19.42;13.25;;;7.70;78.60;;;;;;5096323;28;20394;-77
2022/04/21 01:36:31;;;;;;;19.75;13.35;;;7.60;79.50;;;;;;5096244;28;20050;-78
2022/04/21 01:41:41;;;;;;;20.33;13.80;;;7.60;79.60;;;;;;5096237;28;20487;-78
2022/04/21 01:44:07;;;;;;;22.05;13.63;;;7.60;79.60;;;;;;5095985;28;20036;-78
2022/04/21 01:46:32;;;;;;;19.63;12.32;;;7.60;79.40;;;;;;5095852;28;20051;-77
2022/04/21 01:48:58;;;;;;;17.73;12.60;;;7.60;79.40;;;;;;5095935;28;20153;-77
2022/04/21 01:51:24;;;;;;;19.70;13.25;;;7.60;79.60;;;;;;5079236;28;20487;-75
2022/04/21 01:53:50;;;;;;;22.45;13.63;;;7.60;79.30;;;;;;5096230;28;20086;-78
2022/04/21 01:56:16;;;;;;;21.92;14.32;;;7.60;79.10;;;;;;5095865;28;20506;-78
2022/04/21 01:58:42;;;;;;;20.88;13.75;;;7.60;78.70;;;;;;5079220;28;20035;-75
2022/04/21 02:01:08;;;;;;;21.95;13.70;;;7.50;78.90;;;;;;5078931;28;20475;-79
2022/04/21 02:03:34;;;;;;;18.73;13.00;;;7.50;79.00;;;;;;5095803;28;20096;-78
2022/04/21 02:06:00;;;;;;;20.17;14.90;;;7.40;79.30;;;;;;5095830;28;20039;-78
2022/04/21 02:08:29;;;;;;;22.17;14.05;;;7.40;79.20;;;;;;5095683;28;20479;-75
2022/04/21 02:10:55;;;;;;;20.10;13.20;;;7.30;79.60;;;;;;5095755;28;20040;-75
2022/04/21 02:13:21;;;;;;;18.25;14.23;;;7.30;79.70;;;;;;5095684;28;20127;-78
2022/04/21 02:15:46;;;;;;;18.80;14.45;;;7.20;79.90;;;;;;5095609;28;20066;-78
2022/04/21 02:18:13;;;;;;;17.35;12.95;;;7.20;80.00;;;;;;5078912;28;20039;-78
2022/04/21 02:20:39;;;;;;;15.80;12.43;;;7.20;79.50;;;;;;5095355;28;20062;-76
2022/04/21 02:23:05;;;;;;;19.85;13.77;;;7.10;80.10;;;;;;5078991;28;20043;-78
2022/04/21 02:25:31;;;;;;;23.20;14.15;;;7.20;80.10;;;;;;5078624;28;20454;-78
2022/04/21 02:27:56;;;;;;;20.30;14.73;;;7.10;79.80;;;;;;5095276;28;20036;-78
2022/04/21 02:30:22;;;;;;;16.65;12.88;;;7.10;79.80;;;;;;5095432;28;20043;-77
2022/04/21 02:32:48;;;;;;;18.70;12.95;;;7.10;79.90;;;;;;5095165;28;20047;-76
2022/04/21 02:35:15;;;;;;;14.63;12.00;;;7.10;79.90;;;;;;5095195;28;20039;-78
2022/04/21 02:37:46;;;;;;;17.30;13.70;;;7.10;80.10;;;;;;5078824;28;20075;-78
2022/04/21 02:40:13;;;;;;;19.33;14.82;;;7.10;80.00;;;;;;5095354;28;20445;-77
2022/04/21 02:42:39;;;;;;;17.02;12.02;;;7.10;79.70;;;;;;5078539;28;20040;-78
2022/04/21 02:45:09;;;;;;;20.00;14.05;;;7.00;80.20;;;;;;5095170;28;20398;-76
2022/04/21 02:47:36;;;;;;;20.73;13.73;;;7.00;79.70;;;;;;5095210;28;20043;-77
2022/04/21 02:50:02;;;;;;;19.70;14.95;;;7.00;80.50;;;;;;5078717;28;20040;-76
2022/04/21 02:52:28;;;;;;;20.52;14.45;;;6.90;80.30;;;;;;5078277;28;20048;-78
2022/04/21 02:57:38;;;;;;;18.90;14.57;;;6.80;80.40;;;;;;5095099;28;20097;-77
2022/04/21 03:00:06;;;;;;;22.23;15.40;;;6.80;81.20;;;;;;5095208;28;20031;-76
2022/04/21 03:02:32;;;;;;;21.58;16.70;;;6.70;80.40;;;;;;5099533;28;20042;-76
2022/04/21 03:04:57;;;;;;;22.33;15.85;;;6.70;80.50;;;;;;5099264;28;20470;-78
2022/04/21 03:07:24;;;;;;;20.42;14.98;;;6.70;80.60;;;;;;5098960;28;20047;-77
2022/04/21 03:09:50;;;;;;;20.35;15.43;;;6.70;81.60;;;;;;5099067;28;20049;-78
2022/04/21 03:12:16;;;;;;;18.20;15.10;;;6.80;81.50;;;;;;5099054;28;20036;-76
2022/04/21 03:14:42;;;;;;;19.80;15.35;;;6.80;81.30;;;;;;5099321;28;20077;-79
2022/04/21 03:17:09;;;;;;;21.17;16.02;;;6.80;81.20;;;;;;5098680;28;20046;-77
2022/04/21 03:19:36;;;;;;;21.13;15.32;;;6.80;81.20;;;;;;5082009;28;20052;-76
2022/04/21 03:24:47;;;;;;;19.38;13.77;;;6.80;81.10;;;;;;5099089;28;20046;-78
2022/04/21 03:27:13;;;;;;;19.40;15.73;;;6.80;81.40;;;;;;5081755;28;20488;-77
2022/04/21 03:29:40;;;;;;;20.25;15.57;;;6.80;81.20;;;;;;5081860;28;20074;-77
2022/04/21 03:32:11;;;;;;;19.08;14.75;;;6.80;80.90;;;;;;5098646;28;20039;-76
2022/04/21 03:34:41;;;;;;;19.33;13.65;;;6.70;80.60;;;;;;5098868;28;20039;-76
2022/04/21 03:37:13;;;;;;;20.63;15.05;;;6.70;81.00;;;;;;5098655;28;20039;-78
2022/04/21 03:39:39;;;;;;;24.38;14.52;;;6.70;80.60;;;;;;5098678;28;20488;-77
2022/04/21 03:42:07;;;;;;;21.73;14.70;;;6.70;81.40;;;;;;5081950;28;20092;-77
2022/04/21 03:44:34;;;;;;;21.38;14.85;;;6.70;81.70;;;;;;5098620;28;20035;-75
2022/04/21 03:47:00;;;;;;;15.25;11.43;;;6.70;81.20;;;;;;5081625;28;20043;-75
2022/04/21 03:49:30;;;;;;;16.35;11.63;;;6.70;82.00;;;;;;5082094;28;20380;-77
2022/04/21 03:51:56;;;;;;;19.58;14.18;;;6.70;82.10;;;;;;5098333;28;20487;-76
2022/04/21 03:54:23;;;;;;;20.27;15.27;;;6.80;82.20;;;;;;5098340;28;20035;-77
2022/04/21 03:56:50;;;;;;;20.63;13.80;;;6.70;82.00;;;;;;5098164;28;20484;-75
2022/04/21 03:59:17;;;;;;;20.05;14.07;;;6.80;82.00;;;;;;5098032;28;20088;-75
2022/04/21 04:01:43;;;;;;;18.25;13.18;;;6.80;81.80;;;;;;5081222;28;20040;-77
2022/04/21 04:04:08;;;;;;;21.13;13.65;;;6.80;81.70;;;;;;5081241;28;20068;-77
2022/04/21 04:12:03;;;;;;;17.15;13.15;;;6.80;82.00;;;;;;5097674;28;20050;-76
2022/04/21 04:14:29;;;;;;;17.40;12.63;;;6.80;81.80;;;;;;5081118;28;20043;-76
2022/04/21 04:16:55;;;;;;;16.25;12.13;;;6.70;81.70;;;;;;5080936;28;20055;-75
2022/04/21 04:19:21;;;;;;;15.38;12.63;;;6.70;81.60;;;;;;5081157;28;20483;-76
2022/04/21 04:21:47;;;;;;;15.95;11.90;;;6.70;81.60;;;;;;5097490;28;20058;-76
2022/04/21 04:24:13;;;;;;;14.43;12.07;;;6.70;81.90;;;;;;5097462;28;20047;-78
2022/04/21 04:26:38;;;;;;;15.43;10.93;;;6.70;82.30;;;;;;5097749;28;20046;-75
2022/04/21 04:29:04;;;;;;;16.60;12.27;;;6.60;82.00;;;;;;5097732;28;20096;-76
2022/04/21 04:31:31;;;;;;;15.77;13.07;;;6.60;82.10;;;;;;5097603;28;20076;-77
2022/04/21 04:33:59;;;;;;;18.08;12.13;;;6.70;82.30;;;;;;5097932;28;20039;-78
2022/04/21 04:36:25;;;;;;;16.10;12.40;;;6.70;82.00;;;;;;5080668;28;20040;-77
2022/04/21 04:38:51;;;;;;;17.30;12.85;;;6.70;81.90;;;;;;5097293;28;20127;-76
2022/04/21 04:44:04;;;;;;;17.27;12.80;;;6.70;82.00;;;;;;5097400;28;20073;-77
2022/04/21 04:46:35;;;;;;;15.20;12.45;;;6.70;81.90;;;;;;5097515;28;20031;-75
2022/04/21 04:49:06;;;;;;;15.32;12.15;;;6.70;81.70;;;;;;5097285;28;20046;-77
2022/04/21 04:51:34;;;;;;;15.40;12.35;;;6.60;81.50;;;;;;5080404;28;20048;-77
2022/04/21 04:54:00;;;;;;;18.35;11.73;;;6.60;81.80;;;;;;5080387;28;20046;-76
2022/04/21 04:56:28;;;;;;;12.77;10.50;;;6.60;81.70;;;;;;5097053;28;20387;-76
2022/04/21 04:58:55;;;;;;;14.05;10.48;;;6.60;81.90;;;;;;5097024;28;20042;-77
2022/04/21 05:01:29;;;;;;;14.63;10.93;;;6.60;82.00;;;;;;5080177;28;20036;-75
2022/04/21 05:04:09;;;;;;;18.60;12.18;;;6.60;82.00;;;;;;5080470;28;20044;-77
2022/04/21 05:06:37;;;;;;;15.15;11.70;;;6.60;81.80;;;;;;5096894;28;20031;-76
2022/04/21 05:09:04;;;;;;;16.30;13.13;;;6.70;82.00;;;;;;5096915;28;20043;-76
2022/04/21 05:11:31;;;;;;;16.17;10.88;;;6.70;82.00;;;;;;5097109;28;20104;-75
2022/04/21 05:13:57;;;;;;;18.08;13.20;;;6.70;82.10;;;;;;5080096;28;20495;-75
2022/04/21 05:16:23;;;;;;;15.15;10.48;;;6.70;82.20;;;;;;5096648;28;20621;-75
2022/04/21 05:18:49;;;;;;;16.35;12.32;;;6.80;82.00;;;;;;5096851;28;20123;-76
2022/04/21 05:21:16;;;;;;;16.70;12.88;;;6.80;82.10;;;;;;5096363;28;20070;-77
2022/04/21 05:23:46;;;;;;;18.25;12.50;;;6.80;81.80;;;;;;5078982;28;20040;-76
2022/04/21 05:26:12;;;;;;;14.43;10.63;;;6.80;81.90;;;;;;5079652;28;20042;-77
2022/04/21 05:28:38;;;;;;;18.90;12.23;;;6.90;82.60;;;;;;5096476;28;20092;-78
2022/04/21 05:31:04;;;;;;;15.18;12.18;;;6.90;82.50;;;;;;5096311;28;20044;-78
2022/04/21 05:33:30;;;;;;;14.20;10.88;;;7.00;82.20;;;;;;5096639;28;20130;-78
2022/04/21 05:35:58;;;;;;;12.88;9.35;;;7.00;81.90;;;;;;5079793;28;20036;-79
2022/04/21 05:38:24;;;;;;;17.42;12.10;;;7.10;82.10;;;;;;5096492;28;20039;-75
2022/04/21 05:40:52;;;;;;;14.95;11.45;;;7.10;82.70;;;;;;5096311;28;20035;-75
2022/04/21 05:43:21;;;;;;;16.60;10.45;;;7.20;83.00;;;;;;5096162;28;20096;-75
2022/04/21 05:45:48;;;;;;;12.45;9.80;;;7.30;82.90;;;;;;5096281;28;20123;-75
2022/04/21 05:48:15;;;;;;;16.60;11.65;;;7.30;82.50;;;;;;5096318;28;20039;-75
2022/04/21 05:50:53;;;;;;;13.75;10.60;;;7.40;83.00;;;;;;5096066;28;20054;-76
2022/04/21 05:53:24;;;;;;;11.32;10.15;;;7.50;83.50;;;;;;5096320;28;20105;-76
2022/04/21 05:55:51;;;;;;;13.05;10.13;;;7.50;82.90;;;;;;5079230;28;20043;-75
2022/04/21 05:58:18;;;;;;;13.18;9.07;;;7.60;82.60;;;;;;5095976;28;20044;-76
2022/04/21 06:00:43;;;;;;;16.13;11.13;;;7.70;81.80;;;;;;5095766;28;20039;-75
2022/04/21 06:03:11;;;;;;;12.73;9.52;;;7.80;82.40;;;;;;5079302;28;20422;-77
2022/04/21 06:05:37;;;;;;;11.70;7.80;;;7.90;82.70;;;;;;5095736;28;20093;-77
2022/04/21 06:08:05;;;;;;;14.02;10.60;;;8.00;81.50;;;;;;5096955;27;20474;-74
2022/04/21 06:10:32;;;;;;;12.30;9.70;;;8.10;81.30;;;;;;5097458;27;20051;-76
2022/04/21 06:12:58;;;;;;;12.00;9.15;;;8.20;81.60;;;;;;5095557;27;20573;-76
2022/04/21 06:15:24;;;;;;;13.93;10.05;;;8.30;80.80;;;;;;5096132;27;20122;-76
2022/04/21 06:17:50;;;;;;;13.32;9.50;;;8.30;81.30;;;;;;5093790;28;20133;-76
2022/04/21 06:20:16;;;;;;;11.27;8.00;;;8.50;81.30;;;;;;5082919;27;20089;-75
2022/04/21 06:22:41;;;;;;;15.30;10.40;;;8.50;80.50;;;;;;5098463;27;20099;-76
2022/04/21 06:25:07;;;;;;;13.13;10.38;;;8.70;81.30;;;;;;5099640;27;20079;-75
2022/04/21 06:27:33;;;;;;;12.60;9.32;;;8.80;80.10;;;;;;5078703;27;20047;-76
2022/04/21 06:29:59;;;;;;;14.43;10.02;;;8.80;79.80;;;;;;5080120;27;20083;-77
2022/04/21 06:32:25;;;;;;;12.30;8.60;;;9.00;79.90;;;;;;5083697;27;20047;-75
2022/04/21 06:34:51;;;;;;;12.15;8.40;;;9.10;79.70;;;;;;5093433;28;20082;-75
2022/04/21 06:37:16;;;;;;;11.25;8.63;;;9.10;79.40;;;;;;5079349;27;20065;-75
2022/04/21 06:39:42;;;;;;;11.38;8.80;;;9.30;79.50;;;;;;5098921;27;20091;-76
2022/04/21 06:42:08;;;;;;;12.88;8.82;;;9.30;79.00;;;;;;5099241;28;20100;-75
2022/04/21 06:50:07;;;;;;;12.45;7.78;;;9.60;78.40;;;;;;5098897;28;20047;-77
2022/04/21 06:52:33;;;;;;;10.38;8.80;;;9.70;78.00;;;;;;5079348;27;20039;-76
2022/04/21 06:54:59;;;;;;;11.98;7.07;;;9.80;77.50;;;;;;5095976;27;20491;-76
2022/04/21 06:57:24;;;;;;;13.82;7.13;;;9.90;77.30;;;;;;5097178;28;20050;-75
2022/04/21 06:59:50;;;;;;;9.00;7.50;;;10.00;76.80;;;;;;5078683;28;20051;-77
2022/04/21 07:02:16;;;;;;;8.95;6.38;;;10.10;76.50;;;;;;5098823;28;20051;-76
2022/04/21 07:04:42;;;;;;;8.95;5.82;;;10.20;76.00;;;;;;5080469;28;20070;-77
2022/04/21 07:07:08;;;;;;;9.40;7.40;;;10.30;75.40;;;;;;5077425;28;20085;-75
2022/04/21 07:09:33;;;;;;;8.27;6.38;;;10.40;75.00;;;;;;5096292;28;20039;-76
2022/04/21 07:11:59;;;;;;;7.88;6.00;;;10.50;74.80;;;;;;5092571;28;20122;-75
2022/04/21 07:14:25;;;;;;;9.10;6.50;;;10.60;74.30;;;;;;5097562;28;20042;-75
2022/04/21 07:16:50;;;;;;;7.65;6.40;;;10.70;74.20;;;;;;5094623;28;20050;-76
2022/04/21 07:19:16;;;;;;;11.70;6.95;;;10.80;73.70;;;;;;5096013;28;20059;-76
2022/04/21 07:21:42;;;;;;;7.35;6.10;;;10.90;73.40;;;;;;5080434;28;20094;-75
2022/04/21 07:24:07;;;;;;;7.32;5.68;;;11.00;73.00;;;;;;5076964;28;20043;-76
2022/04/21 07:26:33;;;;;;;9.10;5.72;;;11.00;72.50;;;;;;5078007;28;20035;-76
2022/04/21 07:28:59;;;;;;;8.52;6.38;;;11.10;71.90;;;;;;5094421;28;20031;-75
2022/04/21 07:31:25;;;;;;;8.80;5.97;;;11.20;71.70;;;;;;5095893;28;20468;-76
2022/04/21 07:33:51;;;;;;;7.55;5.75;;;11.30;71.40;;;;;;5072184;28;20058;-77
2022/04/21 07:36:16;;;;;;;7.95;5.80;;;11.40;71.20;;;;;;5099422;28;20050;-76
2022/04/21 07:38:42;;;;;;;8.40;5.82;;;11.50;70.90;;;;;;5097399;28;20456;-77
2022/04/21 07:41:07;;;;;;;13.32;6.90;;;11.60;70.60;;;;;;5080341;28;20501;-77
2022/04/21 07:43:33;;;;;;;8.52;5.93;;;11.70;70.20;;;;;;5077871;28;20044;-76
2022/04/21 07:45:59;;;;;;;8.23;5.82;;;11.80;69.70;;;;;;5098081;27;20062;-77
2022/04/21 07:49:44;;;;;;;8.90;4.78;;;11.90;69.70;;;;;;5082289;27;20134;-76
2022/04/21 07:51:10;;;;;;;5.63;4.95;;;12.00;69.00;;;;;;5097641;27;20118;-77
2022/04/21 07:53:36;;;;;;;5.00;3.88;;;12.00;68.70;;;;;;5100222;27;20040;-75
2022/04/21 07:56:02;;;;;;;5.22;4.10;;;12.20;68.10;;;;;;5100647;27;20047;-78
2022/04/21 07:58:27;;;;;;;9.38;4.32;;;12.30;66.90;;;;;;5085546;27;20035;-77
2022/04/21 08:00:53;;;;;;;6.40;3.97;;;12.50;65.10;;;;;;5098609;27;20771;-76
2022/04/21 08:03:19;;;;;;;7.88;4.68;;;12.60;65.90;;;;;;5080635;27;20503;-76
2022/04/21 08:05:46;;;;;;;6.15;4.10;;;12.70;66.10;;;;;;5084658;27;20112;-77
2022/04/21 08:08:11;;;;;;;6.22;4.28;;;12.90;65.20;;;;;;5081946;27;20038;-76
2022/04/21 08:10:37;;;;;;;5.10;3.75;;;13.00;64.70;;;;;;5100378;27;20043;-76
2022/04/21 08:13:03;;;;;;;4.38;3.53;;;13.00;64.10;;;;;;5099094;27;20043;-76
2022/04/21 08:15:33;;;;;;;8.07;3.88;;;13.20;63.10;;;;;;5083500;27;20057;-75
2022/04/21 08:18:04;;;;;;;5.43;3.42;;;13.40;62.30;;;;;;5080723;27;20391;-77
2022/04/21 08:20:32;;;;;;;6.07;3.97;;;13.50;61.90;;;;;;5096952;28;20055;-77
2022/04/21 08:22:58;;;;;;;4.68;3.65;;;13.60;59.70;;;;;;5097655;28;20051;-78
2022/04/21 08:33:37;;;;;;;5.13;4.03;;;14.00;59.90;;;;;;5097664;28;20054;-78
2022/04/21 08:36:03;;;;;;;5.15;4.20;;;14.10;60.10;;;;;;5097766;28;20392;-82
2022/04/21 08:38:31;;;;;;;6.38;4.13;;;14.20;59.80;;;;;;5080556;28;20126;-80
2022/04/21 08:41:04;;;;;;;6.45;3.65;;;14.40;59.70;;;;;;5097668;28;20479;-77
2022/04/21 08:43:30;;;;;;;4.70;4.15;;;14.50;58.50;;;;;;5097403;28;20055;-77
2022/04/21 08:45:56;;;;;;;5.30;3.60;;;14.60;59.10;;;;;;5097192;28;20092;-79
2022/04/21 08:48:24;;;;;;;4.78;3.63;;;14.70;59.00;;;;;;5097555;28;20062;-78
2022/04/21 08:50:50;;;;;;;5.45;3.20;;;14.70;58.40;;;;;;5097197;28;20047;-79
2022/04/21 08:53:25;;;;;;;6.20;3.80;;;14.70;58.60;;;;;;5097529;28;20501;-79
2022/04/21 08:55:52;;;;;;;5.82;3.70;;;14.90;57.10;;;;;;5097190;28;20044;-80
2022/04/21 08:58:19;;;;;;;4.43;3.45;;;14.90;57.60;;;;;;5095990;28;20039;-78
2022/04/21 09:00:45;;;;;;;4.72;3.45;;;15.00;57.70;;;;;;5097130;28;20035;-79
2022/04/21 09:03:13;;;;;;;4.90;3.47;;;15.10;57.30;;;;;;5097302;28;20049;-79
2022/04/21 09:05:39;;;;;;;4.97;3.47;;;15.20;57.90;;;;;;5080117;28;20506;-80
2022/04/21 09:08:05;;;;;;;6.40;3.42;;;15.30;58.00;;;;;;5063514;28;20032;-80
2022/04/21 09:10:32;;;;;;;5.53;3.70;;;15.40;58.10;;;;;;5080052;28;20036;-79
2022/04/21 09:13:01;;;;;;;4.35;3.17;;;15.50;57.90;;;;;;5096587;28;20073;-79
2022/04/21 09:15:31;;;;;;;5.78;4.70;;;15.70;57.60;;;;;;5097034;28;20039;-79
2022/04/21 09:18:00;;;;;;;5.95;3.30;;;15.70;53.20;;;;;;5096776;28;20503;-81
2022/04/21 09:20:33;;;;;;;4.15;2.92;;;15.80;54.30;;;;;;5079707;28;20411;-81
2022/04/21 09:23:01;;;;;;;5.00;3.65;;;15.90;55.70;;;;;;5093258;28;20067;-81
2022/04/21 09:25:32;;;;;;;4.47;3.88;;;16.00;55.80;;;;;;5093435;28;20051;-81
2022/04/21 09:27:59;;;;;;;4.07;3.28;;;16.00;56.00;;;;;;5093414;28;20373;-81
2022/04/21 09:30:28;;;;;;;4.50;3.05;;;16.10;55.50;;;;;;5093045;28;20044;-79
2022/04/21 09:32:54;;;;;;;3.53;3.10;;;16.30;55.50;;;;;;5076124;28;20040;-82
2022/04/21 09:35:21;;;;;;;4.65;3.50;;;16.40;55.40;;;;;;5076108;28;20050;-80
2022/04/21 09:37:52;;;;;;;6.63;3.42;;;16.50;55.00;;;;;;5093034;28;20093;-80
2022/04/21 09:40:23;;;;;;;4.88;3.28;;;16.50;54.50;;;;;;5076050;28;20357;-81
2022/04/21 09:42:59;;;;;;;3.65;3.13;;;16.60;54.20;;;;;;5093154;28;20123;-78
2022/04/21 09:48:28;;;;;;;5.28;3.10;;;16.70;55.00;;;;;;5093071;28;20101;-81
2022/04/21 09:50:54;;;;;;;4.32;2.90;;;16.80;54.70;;;;;;5075844;28;20079;-80
2022/04/21 09:53:23;;;;;;;4.22;2.95;;;16.90;53.30;;;;;;5059215;28;20076;-78
2022/04/21 09:56:07;;;;;;;2.80;2.55;;;17.00;52.60;;;;;;5076008;28;20040;-81
2022/04/21 09:58:40;;;;;;;3.63;3.15;;;17.00;52.20;;;;;;5092552;28;20097;-77
2022/04/21 10:01:06;;;;;;;5.40;3.25;;;17.30;53.90;;;;;;5092632;28;20089;-80
2022/04/21 10:03:33;;;;;;;4.40;3.28;;;17.40;54.40;;;;;;5075606;28;20040;-81
2022/04/21 10:05:59;;;;;;;5.22;3.50;;;17.40;53.30;;;;;;5075750;28;20365;-76
2022/04/21 10:08:25;;;;;;;4.28;2.92;;;17.50;50.80;;;;;;5084565;28;20040;-77
2022/04/21 10:10:52;;;;;;;3.55;3.10;;;17.50;53.20;;;;;;5112712;28;20522;-79
2022/04/21 10:13:18;;;;;;;7.10;3.28;;;17.60;52.20;;;;;;5112700;28;20048;-77
2022/04/21 10:15:44;;;;;;;4.18;2.80;;;17.70;52.80;;;;;;5112669;28;20082;-76
2022/04/21 10:18:16;;;;;;;5.57;3.30;;;17.70;50.80;;;;;;5112624;28;20411;-75
2022/04/21 10:20:44;;;;;;;3.38;3.05;;;17.70;49.70;;;;;;5112568;28;20047;-78
2022/04/21 10:23:15;;;;;;;4.07;2.83;;;17.90;52.00;;;;;;5112387;28;20455;-75
2022/04/21 10:25:42;;;;;;;4.28;2.75;;;17.90;51.30;;;;;;5095836;28;20081;-78
2022/04/21 10:28:46;;;;;;;5.32;3.08;;;18.00;51.70;;;;;;5112408;28;20040;-78
2022/04/21 10:31:38;;;;;;;3.92;2.90;;;18.00;50.50;;;;;;5081351;28;20455;-78
2022/04/21 10:34:05;;;;;;;3.78;3.38;;;18.20;50.60;;;;;;5095903;28;20294;-78
2022/04/21 10:36:42;;;;;;;6.63;3.05;;;18.30;52.00;;;;;;5095595;28;20031;-76
2022/04/21 10:39:16;;;;;;;3.70;2.75;;;18.40;51.20;;;;;;5112341;28;20044;-77
2022/04/21 10:41:42;;;;;;;3.60;2.80;;;18.50;52.00;;;;;;5112638;28;20101;-77
2022/04/21 10:44:26;;;;;;;5.00;3.47;;;18.60;50.40;;;;;;5112273;28;20499;-78
2022/04/21 10:47:27;;;;;;;4.50;2.85;;;18.60;50.30;;;;;;5112320;28;20040;-78
2022/04/21 10:49:58;;;;;;;3.80;3.35;;;18.60;50.10;;;;;;5112187;28;20044;-78
2022/04/21 10:57:49;;;;;;;7.40;3.15;;;18.90;49.00;;;;;;5112444;28;20043;-78
2022/04/21 11:00:35;;;;;;;5.03;3.38;;;19.00;49.90;;;;;;5112161;28;20846;-77
2022/04/21 11:03:10;;;;;;;10.43;3.60;;;19.00;48.70;;;;;;5111853;28;20044;-77
2022/04/21 11:05:40;;;;;;;4.15;3.25;;;19.20;49.10;;;;;;5111930;28;20120;-77
2022/04/21 11:08:13;;;;;;;4.20;2.97;;;19.30;49.90;;;;;;5112214;28;20050;-78
2022/04/21 11:10:41;;;;;;;7.65;3.88;;;19.30;48.30;;;;;;5112000;28;20040;-78
2022/04/21 11:13:08;;;;;;;8.77;3.58;;;19.20;47.70;;;;;;5095485;28;20061;-77
2022/04/21 11:15:53;;;;;;;7.28;3.60;;;19.20;47.50;;;;;;5112351;28;20395;-76
2022/04/21 11:18:20;;;;;;;12.13;4.93;;;19.30;47.70;;;;;;5111948;28;20092;-77
2022/04/21 11:20:50;;;;;;;5.85;3.10;;;19.40;48.40;;;;;;5111832;28;20039;-78
2022/04/21 11:23:24;;;;;;;5.22;3.38;;;19.50;47.60;;;;;;5115860;28;20066;-79
2022/04/21 11:25:51;;;;;;;5.57;2.72;;;19.50;47.40;;;;;;5115915;28;20090;-79
2022/04/21 11:28:25;;;;;;;4.68;2.60;;;19.60;46.60;;;;;;5115892;28;20054;-79
2022/04/21 11:30:58;;;;;;;3.63;2.67;;;19.70;46.70;;;;;;5099180;28;20087;-78
2022/04/21 11:33:23;;;;;;;4.20;3.30;;;19.70;45.80;;;;;;5116063;28;20096;-77
2022/04/21 11:35:49;;;;;;;4.93;3.00;;;19.80;45.30;;;;;;5115840;28;20036;-77
2022/04/21 11:38:15;;;;;;;8.13;3.20;;;19.90;46.60;;;;;;5098660;28;20071;-78
2022/04/21 11:40:41;;;;;;;4.95;2.95;;;20.10;46.40;;;;;;5115686;28;20046;-76
2022/04/21 11:43:15;;;;;;;4.53;3.42;;;20.10;47.50;;;;;;5112727;28;20079;-77
2022/04/21 11:45:44;;;;;;;5.85;3.53;;;19.80;47.10;;;;;;5078219;28;20032;-77
2022/04/21 11:48:15;;;;;;;5.57;3.83;;;19.40;48.20;;;;;;5095051;28;20097;-77
2022/04/21 11:50:45;;;;;;;4.63;3.20;;;19.10;49.10;;;;;;5095347;28;20391;-77
2022/04/21 11:53:18;;;;;;;5.65;3.55;;;18.90;49.80;;;;;;5080005;28;20043;-77
2022/04/21 11:55:45;;;;;;;7.78;3.85;;;18.90;50.10;;;;;;5103979;28;20088;-77
2022/04/21 11:58:11;;;;;;;6.03;3.58;;;18.90;51.50;;;;;;5106445;28;20543;-78
2022/04/21 12:08:51;;;;;;;4.03;3.42;;;19.30;50.30;;;;;;5106620;28;20119;-77
2022/04/21 12:11:19;;;;;;;6.00;3.67;;;19.50;50.30;;;;;;5098702;28;20465;-77
2022/04/21 12:13:46;;;;;;;4.72;3.45;;;19.50;48.70;;;;;;5094726;28;20039;-76
2022/04/21 12:16:44;;;;;;;3.58;3.28;;;19.60;49.60;;;;;;5094527;28;20036;-76
2022/04/21 12:19:32;;;;;;;3.83;3.40;;;19.80;50.20;;;;;;5077465;28;20519;-77
2022/04/21 12:22:18;;;;;;;5.25;3.40;;;19.70;49.40;;;;;;5094589;28;20457;-77
2022/04/21 12:24:51;;;;;;;5.25;3.67;;;19.70;48.10;;;;;;5094410;28;20044;-79
2022/04/21 12:27:19;;;;;;;5.78;3.17;;;19.80;48.50;;;;;;5060893;28;20055;-78
2022/04/21 12:29:57;;;;;;;4.80;3.80;;;19.90;48.40;;;;;;5094226;28;20039;-78
2022/04/21 12:32:33;;;;;;;3.50;3.05;;;19.80;47.80;;;;;;5094435;28;20039;-78
2022/04/21 12:35:02;;;;;;;4.07;3.08;;;19.90;48.20;;;;;;5094211;28;20047;-77
2022/04/21 12:37:30;;;;;;;5.32;3.58;;;20.10;48.10;;;;;;5094443;28;20032;-77
2022/04/21 12:39:57;;;;;;;5.35;3.25;;;20.00;47.80;;;;;;5094123;28;20036;-78
2022/04/21 12:42:23;;;;;;;3.88;3.33;;;20.20;47.40;;;;;;5094044;28;20097;-77
2022/04/21 12:44:50;;;;;;;19.60;4.78;;;20.30;47.80;;;;;;5077096;28;20043;-78
2022/04/21 12:47:22;;;;;;;4.88;3.85;;;20.50;47.60;;;;;;5094128;28;20511;-77
2022/04/21 12:50:07;;;;;;;5.97;3.83;;;20.40;47.60;;;;;;5093888;28;20484;-78
2022/04/21 12:52:41;;;;;;;7.35;4.57;;;20.30;46.60;;;;;;5093911;28;20040;-77
2022/04/21 12:55:09;;;;;;;6.53;3.72;;;20.10;47.40;;;;;;5093853;28;20093;-78
2022/04/21 12:57:39;;;;;;;4.75;3.80;;;20.00;46.90;;;;;;5077009;28;20135;-78
2022/04/21 13:00:08;;;;;;;5.68;3.75;;;20.00;47.10;;;;;;5093716;28;20558;-77
2022/04/21 13:02:33;;;;;;;6.63;4.00;;;19.90;48.20;;;;;;5093764;28;20044;-78
2022/04/21 13:05:00;;;;;;;6.80;3.97;;;20.00;46.90;;;;;;5093507;28;20217;-78
2022/04/21 13:07:26;;;;;;;5.80;3.90;;;20.10;48.00;;;;;;5093549;28;20083;-78
2022/04/21 13:09:52;;;;;;;5.93;3.83;;;20.20;48.10;;;;;;5076679;28;20047;-78
2022/04/21 13:12:18;;;;;;;5.07;3.95;;;20.00;47.10;;;;;;5093570;28;20044;-78
2022/04/21 13:14:44;;;;;;;5.32;3.42;;;19.90;47.20;;;;;;5093467;28;20062;-78
2022/04/21 13:17:10;;;;;;;4.35;3.85;;;19.90;48.00;;;;;;5093561;28;20404;-78
2022/04/21 13:19:35;;;;;;;4.32;3.65;;;19.70;47.20;;;;;;5093246;28;20079;-77
2022/04/21 13:22:02;;;;;;;5.80;3.70;;;19.70;48.10;;;;;;5059782;28;20056;-78
2022/04/21 13:24:29;;;;;;;4.22;3.78;;;19.70;48.00;;;;;;5093582;28;20035;-78
2022/04/21 13:26:57;;;;;;;4.43;3.50;;;19.70;47.40;;;;;;5093377;28;20036;-78
2022/04/21 13:29:22;;;;;;;6.18;4.35;;;19.80;47.60;;;;;;5093153;28;20042;-78
2022/04/21 13:34:34;;;;;;;5.18;3.33;;;20.00;46.90;;;;;;5093350;28;20050;-78
2022/04/21 13:37:01;;;;;;;4.60;3.20;;;20.10;46.80;;;;;;5093006;28;20096;-78
2022/04/21 13:39:27;;;;;;;7.35;3.88;;;20.20;47.20;;;;;;5092924;28;20040;-78
2022/04/21 13:41:53;;;;;;;4.00;3.35;;;20.30;46.80;;;;;;5093245;28;20043;-77